sensor_id;sensor_type;location;lat;lon;timestamp;temperature;humidity
5868;DHT22;2960;49.142;7.768;2023-06-05T00:00:31;16.10;43.60
5868;DHT22;2960;49.142;7.768;2023-06-05T00:02:58;16.10;43.70
5868;DHT22;2960;49.142;7.768;2023-06-05T00:05:27;16.00;43.70
5868;DHT22;2960;49.142;7.768;2023-06-05T00:07:55;16.00;43.90
5868;DHT22;2960;49.142;7.768;2023-06-05T00:10:22;15.90;43.90
5868;DHT22;2960;49.142;7.768;2023-06-05T00:12:50;15.80;43.90
5868;DHT22;2960;49.142;7.768;2023-06-05T00:15:17;15.80;44.10
5868;DHT22;2960;49.142;7.768;2023-06-05T00:17:44;15.70;44.10
5868;DHT22;2960;49.142;7.768;2023-06-05T00:20:13;15.70;44.20
5868;DHT22;2960;49.142;7.768;2023-06-05T00:22:41;15.60;44.30
5868;DHT22;2960;49.142;7.768;2023-06-05T00:25:10;15.60;44.40
5868;DHT22;2960;49.142;7.768;2023-06-05T00:27:37;15.60;44.50
5868;DHT22;2960;49.142;7.768;2023-06-05T00:30:07;15.50;44.50
5868;DHT22;2960;49.142;7.768;2023-06-05T00:32:35;15.50;44.60
5868;DHT22;2960;49.142;7.768;2023-06-05T00:35:02;15.50;44.70
5868;DHT22;2960;49.142;7.768;2023-06-05T00:37:30;15.40;44.80
5868;DHT22;2960;49.142;7.768;2023-06-05T00:40:00;15.40;44.90
5868;DHT22;2960;49.142;7.768;2023-06-05T00:42:27;15.30;44.90
5868;DHT22;2960;49.142;7.768;2023-06-05T00:44:54;15.30;45.00
5868;DHT22;2960;49.142;7.768;2023-06-05T00:47:21;15.30;45.10
5868;DHT22;2960;49.142;7.768;2023-06-05T00:49:49;15.20;45.10
5868;DHT22;2960;49.142;7.768;2023-06-05T00:52:16;15.20;45.20
5868;DHT22;2960;49.142;7.768;2023-06-05T00:54:44;15.10;45.20
5868;DHT22;2960;49.142;7.768;2023-06-05T00:57:12;15.10;45.30
5868;DHT22;2960;49.142;7.768;2023-06-05T00:59:40;15.10;45.40
5868;DHT22;2960;49.142;7.768;2023-06-05T01:02:10;15.10;45.50
5868;DHT22;2960;49.142;7.768;2023-06-05T01:04:38;15.00;45.50
5868;DHT22;2960;49.142;7.768;2023-06-05T01:07:06;15.00;45.60
5868;DHT22;2960;49.142;7.768;2023-06-05T01:09:34;15.00;45.60
5868;DHT22;2960;49.142;7.768;2023-06-05T01:12:05;14.90;45.60
5868;DHT22;2960;49.142;7.768;2023-06-05T01:14:38;14.90;45.70
5868;DHT22;2960;49.142;7.768;2023-06-05T01:17:12;14.90;45.70
5868;DHT22;2960;49.142;7.768;2023-06-05T01:19:40;14.80;45.70
5868;DHT22;2960;49.142;7.768;2023-06-05T01:22:08;14.80;45.80
5868;DHT22;2960;49.142;7.768;2023-06-05T01:24:39;14.80;46.00
5868;DHT22;2960;49.142;7.768;2023-06-05T01:27:12;14.70;46.00
5868;DHT22;2960;49.142;7.768;2023-06-05T01:29:50;14.70;46.00
5868;DHT22;2960;49.142;7.768;2023-06-05T01:32:25;14.60;46.00
5868;DHT22;2960;49.142;7.768;2023-06-05T01:34:57;14.60;46.20
5868;DHT22;2960;49.142;7.768;2023-06-05T01:37:26;14.50;46.20
5868;DHT22;2960;49.142;7.768;2023-06-05T01:39:55;14.50;46.30
5868;DHT22;2960;49.142;7.768;2023-06-05T01:42:24;14.50;46.40
5868;DHT22;2960;49.142;7.768;2023-06-05T01:44:53;14.40;46.40
5868;DHT22;2960;49.142;7.768;2023-06-05T01:47:20;14.40;46.50
5868;DHT22;2960;49.142;7.768;2023-06-05T01:49:48;14.40;46.60
5868;DHT22;2960;49.142;7.768;2023-06-05T01:52:16;14.30;46.60
5868;DHT22;2960;49.142;7.768;2023-06-05T01:54:43;14.30;46.70
5868;DHT22;2960;49.142;7.768;2023-06-05T01:57:13;14.30;46.70
5868;DHT22;2960;49.142;7.768;2023-06-05T01:59:40;14.30;46.80
5868;DHT22;2960;49.142;7.768;2023-06-05T02:02:09;14.20;46.90
5868;DHT22;2960;49.142;7.768;2023-06-05T02:04:37;14.20;47.00
5868;DHT22;2960;49.142;7.768;2023-06-05T02:07:04;14.20;47.10
5868;DHT22;2960;49.142;7.768;2023-06-05T02:09:32;14.10;47.00
5868;DHT22;2960;49.142;7.768;2023-06-05T02:12:00;14.10;47.10
5868;DHT22;2960;49.142;7.768;2023-06-05T02:14:30;14.10;47.20
5868;DHT22;2960;49.142;7.768;2023-06-05T02:17:01;14.00;47.20
5868;DHT22;2960;49.142;7.768;2023-06-05T02:19:29;14.00;47.30
5868;DHT22;2960;49.142;7.768;2023-06-05T02:21:56;14.00;47.40
5868;DHT22;2960;49.142;7.768;2023-06-05T02:24:23;13.90;47.40
5868;DHT22;2960;49.142;7.768;2023-06-05T02:26:50;13.90;48.00
5868;DHT22;2960;49.142;7.768;2023-06-05T02:29:18;13.90;47.50
5868;DHT22;2960;49.142;7.768;2023-06-05T02:31:46;13.90;47.60
5868;DHT22;2960;49.142;7.768;2023-06-05T02:34:13;13.80;47.50
5868;DHT22;2960;49.142;7.768;2023-06-05T02:36:42;13.80;48.20
5868;DHT22;2960;49.142;7.768;2023-06-05T02:39:10;13.80;47.70
5868;DHT22;2960;49.142;7.768;2023-06-05T02:41:38;13.70;47.70
5868;DHT22;2960;49.142;7.768;2023-06-05T02:44:05;13.70;47.80
5868;DHT22;2960;49.142;7.768;2023-06-05T02:46:32;13.70;48.50
5868;DHT22;2960;49.142;7.768;2023-06-05T02:49:01;13.60;47.90
5868;DHT22;2960;49.142;7.768;2023-06-05T02:51:28;13.60;48.00
5868;DHT22;2960;49.142;7.768;2023-06-05T02:53:55;13.60;48.10
5868;DHT22;2960;49.142;7.768;2023-06-05T02:56:23;13.50;48.10
5868;DHT22;2960;49.142;7.768;2023-06-05T02:58:51;13.50;48.20
5868;DHT22;2960;49.142;7.768;2023-06-05T03:01:18;13.50;48.20
5868;DHT22;2960;49.142;7.768;2023-06-05T03:03:47;13.50;48.30
5868;DHT22;2960;49.142;7.768;2023-06-05T03:06:16;13.40;48.30
5868;DHT22;2960;49.142;7.768;2023-06-05T03:08:44;13.40;48.40
5868;DHT22;2960;49.142;7.768;2023-06-05T03:11:11;13.40;48.50
5868;DHT22;2960;49.142;7.768;2023-06-05T03:13:39;13.30;48.40
5868;DHT22;2960;49.142;7.768;2023-06-05T03:16:06;13.30;48.50
5868;DHT22;2960;49.142;7.768;2023-06-05T03:18:34;13.30;49.20
5868;DHT22;2960;49.142;7.768;2023-06-05T03:21:04;13.20;48.60
5868;DHT22;2960;49.142;7.768;2023-06-05T03:23:32;13.20;48.70
5868;DHT22;2960;49.142;7.768;2023-06-05T03:26:02;13.20;48.80
5868;DHT22;2960;49.142;7.768;2023-06-05T03:28:29;13.20;48.80
5868;DHT22;2960;49.142;7.768;2023-06-05T03:30:59;13.10;48.80
5868;DHT22;2960;49.142;7.768;2023-06-05T03:33:26;13.10;48.90
5868;DHT22;2960;49.142;7.768;2023-06-05T03:35:53;13.10;49.00
5868;DHT22;2960;49.142;7.768;2023-06-05T03:38:21;13.10;49.00
5868;DHT22;2960;49.142;7.768;2023-06-05T03:40:49;13.10;49.10
5868;DHT22;2960;49.142;7.768;2023-06-05T03:43:16;13.00;49.00
5868;DHT22;2960;49.142;7.768;2023-06-05T03:45:43;13.00;49.10
5868;DHT22;2960;49.142;7.768;2023-06-05T03:48:12;13.00;49.80
5868;DHT22;2960;49.142;7.768;2023-06-05T03:50:39;13.00;49.20
5868;DHT22;2960;49.142;7.768;2023-06-05T03:53:06;12.90;49.30
5868;DHT22;2960;49.142;7.768;2023-06-05T03:55:35;12.90;49.30
5868;DHT22;2960;49.142;7.768;2023-06-05T03:58:13;12.90;49.40
5868;DHT22;2960;49.142;7.768;2023-06-05T04:00:40;12.90;49.50
5868;DHT22;2960;49.142;7.768;2023-06-05T04:03:08;12.90;49.60
5868;DHT22;2960;49.142;7.768;2023-06-05T04:05:36;12.80;49.60
5868;DHT22;2960;49.142;7.768;2023-06-05T04:08:04;12.80;49.70
5868;DHT22;2960;49.142;7.768;2023-06-05T04:10:31;12.80;49.70
5868;DHT22;2960;49.142;7.768;2023-06-05T04:12:59;12.80;50.30
5868;DHT22;2960;49.142;7.768;2023-06-05T04:15:28;12.80;49.80
5868;DHT22;2960;49.142;7.768;2023-06-05T04:17:55;12.90;49.90
5868;DHT22;2960;49.142;7.768;2023-06-05T04:20:25;12.80;49.90
5868;DHT22;2960;49.142;7.768;2023-06-05T04:22:52;12.80;50.00
5868;DHT22;2960;49.142;7.768;2023-06-05T04:25:19;12.80;50.60
5868;DHT22;2960;49.142;7.768;2023-06-05T04:27:47;12.90;50.10
5868;DHT22;2960;49.142;7.768;2023-06-05T04:30:16;12.90;50.20
5868;DHT22;2960;49.142;7.768;2023-06-05T04:32:44;12.90;50.30
5868;DHT22;2960;49.142;7.768;2023-06-05T04:35:18;13.00;50.40
5868;DHT22;2960;49.142;7.768;2023-06-05T04:37:46;13.00;50.50
5868;DHT22;2960;49.142;7.768;2023-06-05T04:40:14;13.00;50.50
5868;DHT22;2960;49.142;7.768;2023-06-05T04:42:42;13.00;50.50
5868;DHT22;2960;49.142;7.768;2023-06-05T04:45:10;13.10;50.60
5868;DHT22;2960;49.142;7.768;2023-06-05T04:47:37;13.10;50.60
5868;DHT22;2960;49.142;7.768;2023-06-05T04:50:06;13.20;50.60
5868;DHT22;2960;49.142;7.768;2023-06-05T04:52:34;13.20;50.60
5868;DHT22;2960;49.142;7.768;2023-06-05T04:55:06;13.30;50.60
5868;DHT22;2960;49.142;7.768;2023-06-05T04:57:36;13.40;50.70
5868;DHT22;2960;49.142;7.768;2023-06-05T05:00:05;13.40;50.60
5868;DHT22;2960;49.142;7.768;2023-06-05T05:02:33;13.50;50.70
5868;DHT22;2960;49.142;7.768;2023-06-05T05:05:00;13.60;50.70
5868;DHT22;2960;49.142;7.768;2023-06-05T05:07:29;13.60;50.70
5868;DHT22;2960;49.142;7.768;2023-06-05T05:09:56;13.70;51.20
5868;DHT22;2960;49.142;7.768;2023-06-05T05:12:23;13.80;50.60
5868;DHT22;2960;49.142;7.768;2023-06-05T05:14:50;13.90;50.60
5868;DHT22;2960;49.142;7.768;2023-06-05T05:17:17;14.00;50.60
5868;DHT22;2960;49.142;7.768;2023-06-05T05:19:46;14.00;50.50
5868;DHT22;2960;49.142;7.768;2023-06-05T05:22:13;14.10;51.00
5868;DHT22;2960;49.142;7.768;2023-06-05T05:24:44;14.20;50.50
5868;DHT22;2960;49.142;7.768;2023-06-05T05:27:11;14.30;50.40
5868;DHT22;2960;49.142;7.768;2023-06-05T05:29:38;14.40;50.40
5868;DHT22;2960;49.142;7.768;2023-06-05T05:32:05;14.50;50.40
5868;DHT22;2960;49.142;7.768;2023-06-05T05:34:33;14.60;50.30
5868;DHT22;2960;49.142;7.768;2023-06-05T05:37:00;14.70;50.30
5868;DHT22;2960;49.142;7.768;2023-06-05T05:39:29;14.80;50.30
5868;DHT22;2960;49.142;7.768;2023-06-05T05:41:57;14.90;50.20
5868;DHT22;2960;49.142;7.768;2023-06-05T05:44:26;15.00;50.20
5868;DHT22;2960;49.142;7.768;2023-06-05T05:46:55;15.20;50.20
5868;DHT22;2960;49.142;7.768;2023-06-05T05:49:22;15.20;50.10
5868;DHT22;2960;49.142;7.768;2023-06-05T05:51:52;15.40;50.10
5868;DHT22;2960;49.142;7.768;2023-06-05T05:54:22;15.50;50.10
5868;DHT22;2960;49.142;7.768;2023-06-05T05:56:52;15.60;50.20
5868;DHT22;2960;49.142;7.768;2023-06-05T05:59:21;15.70;50.80
5868;DHT22;2960;49.142;7.768;2023-06-05T06:01:48;15.80;50.80
5868;DHT22;2960;49.142;7.768;2023-06-05T06:04:16;15.90;50.30
5868;DHT22;2960;49.142;7.768;2023-06-05T06:06:44;16.00;50.30
5868;DHT22;2960;49.142;7.768;2023-06-05T06:09:14;16.20;51.00
5868;DHT22;2960;49.142;7.768;2023-06-05T06:11:43;16.30;50.40
5868;DHT22;2960;49.142;7.768;2023-06-05T06:14:10;16.40;50.40
5868;DHT22;2960;49.142;7.768;2023-06-05T06:16:39;16.50;50.50
5868;DHT22;2960;49.142;7.768;2023-06-05T06:19:08;16.60;50.50
5868;DHT22;2960;49.142;7.768;2023-06-05T06:21:40;16.70;50.60
5868;DHT22;2960;49.142;7.768;2023-06-05T06:24:07;16.90;50.70
5868;DHT22;2960;49.142;7.768;2023-06-05T06:26:35;17.00;50.70
5868;DHT22;2960;49.142;7.768;2023-06-05T06:29:04;17.10;50.80
5868;DHT22;2960;49.142;7.768;2023-06-05T06:31:31;17.20;50.80
5868;DHT22;2960;49.142;7.768;2023-06-05T06:34:00;17.30;50.70
5868;DHT22;2960;49.142;7.768;2023-06-05T06:36:28;17.40;50.70
5868;DHT22;2960;49.142;7.768;2023-06-05T06:38:55;17.60;50.80
5868;DHT22;2960;49.142;7.768;2023-06-05T06:41:22;17.70;50.70
5868;DHT22;2960;49.142;7.768;2023-06-05T06:43:49;17.80;50.60
5868;DHT22;2960;49.142;7.768;2023-06-05T06:46:16;17.90;51.00
5868;DHT22;2960;49.142;7.768;2023-06-05T06:48:43;18.00;50.20
5868;DHT22;2960;49.142;7.768;2023-06-05T06:51:12;18.20;50.20
5868;DHT22;2960;49.142;7.768;2023-06-05T06:53:39;18.30;50.00
5868;DHT22;2960;49.142;7.768;2023-06-05T06:56:07;18.40;49.80
5868;DHT22;2960;49.142;7.768;2023-06-05T06:58:35;18.50;49.70
5868;DHT22;2960;49.142;7.768;2023-06-05T07:01:02;18.60;49.50
5868;DHT22;2960;49.142;7.768;2023-06-05T07:03:30;18.70;49.30
5868;DHT22;2960;49.142;7.768;2023-06-05T07:05:57;18.90;49.10
5868;DHT22;2960;49.142;7.768;2023-06-05T07:08:25;19.00;48.90
5868;DHT22;2960;49.142;7.768;2023-06-05T07:10:53;19.10;48.90
5868;DHT22;2960;49.142;7.768;2023-06-05T07:13:21;19.20;48.60
5868;DHT22;2960;49.142;7.768;2023-06-05T07:15:48;19.40;48.50
5868;DHT22;2960;49.142;7.768;2023-06-05T07:18:17;19.50;48.20
5868;DHT22;2960;49.142;7.768;2023-06-05T07:20:45;19.70;48.10
5868;DHT22;2960;49.142;7.768;2023-06-05T07:23:14;19.80;47.80
5868;DHT22;2960;49.142;7.768;2023-06-05T07:25:44;20.00;47.70
5868;DHT22;2960;49.142;7.768;2023-06-05T07:28:12;20.10;47.40
5868;DHT22;2960;49.142;7.768;2023-06-05T07:30:41;20.20;47.20
5868;DHT22;2960;49.142;7.768;2023-06-05T07:33:09;20.30;47.00
5868;DHT22;2960;49.142;7.768;2023-06-05T07:35:36;20.40;46.80
5868;DHT22;2960;49.142;7.768;2023-06-05T07:38:04;20.60;46.80
5868;DHT22;2960;49.142;7.768;2023-06-05T07:40:31;20.70;47.10
5868;DHT22;2960;49.142;7.768;2023-06-05T07:43:00;20.80;46.70
5868;DHT22;2960;49.142;7.768;2023-06-05T07:45:27;20.90;45.90
5868;DHT22;2960;49.142;7.768;2023-06-05T07:47:54;21.10;45.80
5868;DHT22;2960;49.142;7.768;2023-06-05T07:50:21;21.20;45.60
5868;DHT22;2960;49.142;7.768;2023-06-05T07:52:48;21.30;45.50
5868;DHT22;2960;49.142;7.768;2023-06-05T07:55:16;21.40;45.20
5868;DHT22;2960;49.142;7.768;2023-06-05T07:57:43;21.60;45.10
5868;DHT22;2960;49.142;7.768;2023-06-05T08:00:12;21.70;44.90
5868;DHT22;2960;49.142;7.768;2023-06-05T08:02:41;21.80;44.70
5868;DHT22;2960;49.142;7.768;2023-06-05T08:05:09;21.90;44.60
5868;DHT22;2960;49.142;7.768;2023-06-05T08:07:36;22.00;44.30
5868;DHT22;2960;49.142;7.768;2023-06-05T08:10:04;22.20;44.20
5868;DHT22;2960;49.142;7.768;2023-06-05T08:12:33;22.30;44.00
5868;DHT22;2960;49.142;7.768;2023-06-05T08:15:00;22.40;43.80
5868;DHT22;2960;49.142;7.768;2023-06-05T08:17:29;22.50;43.40
5868;DHT22;2960;49.142;7.768;2023-06-05T08:19:56;22.70;43.40
5868;DHT22;2960;49.142;7.768;2023-06-05T08:22:23;22.70;43.20
5868;DHT22;2960;49.142;7.768;2023-06-05T08:24:50;22.80;43.00
5868;DHT22;2960;49.142;7.768;2023-06-05T08:27:19;22.90;42.90
5868;DHT22;2960;49.142;7.768;2023-06-05T08:29:47;23.00;42.80
5868;DHT22;2960;49.142;7.768;2023-06-05T08:32:14;23.10;42.70
5868;DHT22;2960;49.142;7.768;2023-06-05T08:34:44;23.20;42.60
5868;DHT22;2960;49.142;7.768;2023-06-05T08:37:11;23.30;42.40
5868;DHT22;2960;49.142;7.768;2023-06-05T08:39:38;23.40;42.20
5868;DHT22;2960;49.142;7.768;2023-06-05T08:42:05;23.50;42.80
5868;DHT22;2960;49.142;7.768;2023-06-05T08:44:33;23.60;42.00
5868;DHT22;2960;49.142;7.768;2023-06-05T08:47:02;23.70;41.90
5868;DHT22;2960;49.142;7.768;2023-06-05T08:49:30;23.80;41.80
5868;DHT22;2960;49.142;7.768;2023-06-05T08:52:06;23.90;41.50
5868;DHT22;2960;49.142;7.768;2023-06-05T08:54:37;24.00;41.50
5868;DHT22;2960;49.142;7.768;2023-06-05T08:57:06;24.10;41.40
5868;DHT22;2960;49.142;7.768;2023-06-05T08:59:34;24.10;41.20
5868;DHT22;2960;49.142;7.768;2023-06-05T09:02:02;24.20;41.10
5868;DHT22;2960;49.142;7.768;2023-06-05T09:04:30;24.30;41.00
5868;DHT22;2960;49.142;7.768;2023-06-05T09:06:57;24.40;41.00
5868;DHT22;2960;49.142;7.768;2023-06-05T09:09:26;24.50;40.80
5868;DHT22;2960;49.142;7.768;2023-06-05T09:12:03;24.60;41.30
5868;DHT22;2960;49.142;7.768;2023-06-05T09:14:33;24.80;40.70
5868;DHT22;2960;49.142;7.768;2023-06-05T09:17:01;24.80;40.40
5868;DHT22;2960;49.142;7.768;2023-06-05T09:19:35;24.90;40.30
5868;DHT22;2960;49.142;7.768;2023-06-05T09:22:05;25.00;40.10
5868;DHT22;2960;49.142;7.768;2023-06-05T09:24:34;25.20;40.10
5868;DHT22;2960;49.142;7.768;2023-06-05T09:27:03;25.20;39.90
5868;DHT22;2960;49.142;7.768;2023-06-05T09:29:32;25.30;39.80
5868;DHT22;2960;49.142;7.768;2023-06-05T09:32:02;25.40;39.70
5868;DHT22;2960;49.142;7.768;2023-06-05T09:34:31;25.50;39.50
5868;DHT22;2960;49.142;7.768;2023-06-05T09:37:00;25.60;39.30
5868;DHT22;2960;49.142;7.768;2023-06-05T09:39:29;25.60;39.30
5868;DHT22;2960;49.142;7.768;2023-06-05T09:41:59;25.80;39.30
5868;DHT22;2960;49.142;7.768;2023-06-05T09:44:27;25.80;39.10
5868;DHT22;2960;49.142;7.768;2023-06-05T09:46:57;25.90;38.90
5868;DHT22;2960;49.142;7.768;2023-06-05T09:49:27;26.00;38.70
5868;DHT22;2960;49.142;7.768;2023-06-05T09:51:56;26.00;38.50
5868;DHT22;2960;49.142;7.768;2023-06-05T09:54:26;26.10;38.10
5868;DHT22;2960;49.142;7.768;2023-06-05T09:56:57;26.10;38.00
5868;DHT22;2960;49.142;7.768;2023-06-05T09:59:29;26.10;38.10
5868;DHT22;2960;49.142;7.768;2023-06-05T10:01:59;26.10;37.90
5868;DHT22;2960;49.142;7.768;2023-06-05T10:04:32;26.20;37.60
5868;DHT22;2960;49.142;7.768;2023-06-05T10:07:04;26.30;37.40
5868;DHT22;2960;49.142;7.768;2023-06-05T10:09:32;26.40;37.20
5868;DHT22;2960;49.142;7.768;2023-06-05T10:12:02;26.50;37.00
5868;DHT22;2960;49.142;7.768;2023-06-05T10:14:30;26.60;37.00
5868;DHT22;2960;49.142;7.768;2023-06-05T10:16:57;26.70;36.90
5868;DHT22;2960;49.142;7.768;2023-06-05T10:19:25;26.80;36.80
5868;DHT22;2960;49.142;7.768;2023-06-05T10:21:52;26.80;36.60
5868;DHT22;2960;49.142;7.768;2023-06-05T10:24:23;26.90;36.50
5868;DHT22;2960;49.142;7.768;2023-06-05T10:30:47;27.10;36.30
5868;DHT22;2960;49.142;7.768;2023-06-05T10:33:42;27.10;36.10
5868;DHT22;2960;49.142;7.768;2023-06-05T10:36:34;27.20;36.10
5868;DHT22;2960;49.142;7.768;2023-06-05T10:39:13;27.20;35.90
5868;DHT22;2960;49.142;7.768;2023-06-05T10:41:41;27.20;35.80
5868;DHT22;2960;49.142;7.768;2023-06-05T10:44:10;27.30;35.70
5868;DHT22;2960;49.142;7.768;2023-06-05T10:46:40;27.40;35.60
5868;DHT22;2960;49.142;7.768;2023-06-05T10:49:09;27.50;35.40
5868;DHT22;2960;49.142;7.768;2023-06-05T10:51:39;27.50;35.30
5868;DHT22;2960;49.142;7.768;2023-06-05T10:54:09;27.60;35.00
5868;DHT22;2960;49.142;7.768;2023-06-05T10:56:59;27.70;34.90
5868;DHT22;2960;49.142;7.768;2023-06-05T10:59:30;27.70;34.80
5868;DHT22;2960;49.142;7.768;2023-06-05T11:02:21;27.70;34.70
5868;DHT22;2960;49.142;7.768;2023-06-05T11:05:06;27.80;34.60
5868;DHT22;2960;49.142;7.768;2023-06-05T11:07:36;27.90;34.40
5868;DHT22;2960;49.142;7.768;2023-06-05T11:10:16;27.90;34.30
5868;DHT22;2960;49.142;7.768;2023-06-05T11:13:00;27.90;34.10
5868;DHT22;2960;49.142;7.768;2023-06-05T11:15:40;28.00;34.00
5868;DHT22;2960;49.142;7.768;2023-06-05T11:18:33;28.00;33.70
5868;DHT22;2960;49.142;7.768;2023-06-05T11:21:02;28.00;33.00
5868;DHT22;2960;49.142;7.768;2023-06-05T11:23:29;27.90;32.60
5868;DHT22;2960;49.142;7.768;2023-06-05T11:29:13;27.80;32.70
5868;DHT22;2960;49.142;7.768;2023-06-05T11:31:44;27.80;32.80
5868;DHT22;2960;49.142;7.768;2023-06-05T11:34:12;27.80;32.60
5868;DHT22;2960;49.142;7.768;2023-06-05T11:36:40;27.80;32.50
5868;DHT22;2960;49.142;7.768;2023-06-05T11:39:08;27.80;32.30
5868;DHT22;2960;49.142;7.768;2023-06-05T11:41:43;27.80;32.10
5868;DHT22;2960;49.142;7.768;2023-06-05T11:44:11;27.80;32.10
5868;DHT22;2960;49.142;7.768;2023-06-05T11:46:39;27.80;32.20
5868;DHT22;2960;49.142;7.768;2023-06-05T11:49:23;27.80;32.10
5868;DHT22;2960;49.142;7.768;2023-06-05T11:51:52;27.90;31.90
5868;DHT22;2960;49.142;7.768;2023-06-05T11:54:30;27.80;31.70
5868;DHT22;2960;49.142;7.768;2023-06-05T11:57:01;27.90;31.30
5868;DHT22;2960;49.142;7.768;2023-06-05T11:59:36;27.80;31.40
5868;DHT22;2960;49.142;7.768;2023-06-05T12:02:05;27.80;31.40
5868;DHT22;2960;49.142;7.768;2023-06-05T12:04:34;27.80;31.20
5868;DHT22;2960;49.142;7.768;2023-06-05T12:07:01;27.80;30.20
5868;DHT22;2960;49.142;7.768;2023-06-05T12:09:28;27.80;30.50
5868;DHT22;2960;49.142;7.768;2023-06-05T12:12:05;27.80;30.60
5868;DHT22;2960;49.142;7.768;2023-06-05T12:14:33;27.80;30.70
5868;DHT22;2960;49.142;7.768;2023-06-05T12:17:08;27.80;30.80
5868;DHT22;2960;49.142;7.768;2023-06-05T12:19:38;27.90;30.70
5868;DHT22;2960;49.142;7.768;2023-06-05T12:22:06;27.90;31.20
5868;DHT22;2960;49.142;7.768;2023-06-05T12:24:35;27.90;30.50
5868;DHT22;2960;49.142;7.768;2023-06-05T12:27:03;28.00;30.40
5868;DHT22;2960;49.142;7.768;2023-06-05T12:29:33;28.00;30.40
5868;DHT22;2960;49.142;7.768;2023-06-05T12:32:19;28.10;30.40
5868;DHT22;2960;49.142;7.768;2023-06-05T12:34:49;28.20;30.40
5868;DHT22;2960;49.142;7.768;2023-06-05T12:37:24;28.20;30.30
5868;DHT22;2960;49.142;7.768;2023-06-05T12:39:55;28.30;30.40
5868;DHT22;2960;49.142;7.768;2023-06-05T12:42:23;28.30;30.30
5868;DHT22;2960;49.142;7.768;2023-06-05T12:44:50;28.40;30.30
5868;DHT22;2960;49.142;7.768;2023-06-05T12:47:20;28.40;30.30
5868;DHT22;2960;49.142;7.768;2023-06-05T12:49:49;28.40;30.10
5868;DHT22;2960;49.142;7.768;2023-06-05T12:52:16;28.50;30.00
5868;DHT22;2960;49.142;7.768;2023-06-05T12:54:45;28.50;30.00
5868;DHT22;2960;49.142;7.768;2023-06-05T12:57:13;28.50;30.00
5868;DHT22;2960;49.142;7.768;2023-06-05T12:59:40;28.60;30.00
5868;DHT22;2960;49.142;7.768;2023-06-05T13:02:07;28.60;30.00
5868;DHT22;2960;49.142;7.768;2023-06-05T13:04:34;28.60;29.90
5868;DHT22;2960;49.142;7.768;2023-06-05T13:07:04;28.60;29.80
5868;DHT22;2960;49.142;7.768;2023-06-05T13:09:31;28.70;29.80
5868;DHT22;2960;49.142;7.768;2023-06-05T13:11:59;28.70;29.70
5868;DHT22;2960;49.142;7.768;2023-06-05T13:14:26;28.70;29.70
5868;DHT22;2960;49.142;7.768;2023-06-05T13:16:53;28.70;29.70
5868;DHT22;2960;49.142;7.768;2023-06-05T13:19:20;28.70;29.70
5868;DHT22;2960;49.142;7.768;2023-06-05T13:21:47;28.70;29.70
5868;DHT22;2960;49.142;7.768;2023-06-05T13:24:16;28.70;29.60
5868;DHT22;2960;49.142;7.768;2023-06-05T13:26:43;28.60;29.70
5868;DHT22;2960;49.142;7.768;2023-06-05T13:29:12;28.60;29.80
5868;DHT22;2960;49.142;7.768;2023-06-05T13:31:40;28.60;29.80
5868;DHT22;2960;49.142;7.768;2023-06-05T13:34:07;28.50;29.70
5868;DHT22;2960;49.142;7.768;2023-06-05T13:36:34;28.50;29.70
5868;DHT22;2960;49.142;7.768;2023-06-05T13:39:02;28.40;30.10
5868;DHT22;2960;49.142;7.768;2023-06-05T13:41:30;28.40;29.70
5868;DHT22;2960;49.142;7.768;2023-06-05T13:43:58;28.40;29.80
5868;DHT22;2960;49.142;7.768;2023-06-05T13:46:28;28.30;29.80
5868;DHT22;2960;49.142;7.768;2023-06-05T13:48:55;28.30;29.70
5868;DHT22;2960;49.142;7.768;2023-06-05T13:51:26;28.30;29.80
5868;DHT22;2960;49.142;7.768;2023-06-05T13:53:53;28.30;29.80
5868;DHT22;2960;49.142;7.768;2023-06-05T13:56:22;28.30;29.90
5868;DHT22;2960;49.142;7.768;2023-06-05T13:58:50;28.30;29.90
5868;DHT22;2960;49.142;7.768;2023-06-05T14:01:17;28.30;30.00
5868;DHT22;2960;49.142;7.768;2023-06-05T14:03:47;28.20;30.30
5868;DHT22;2960;49.142;7.768;2023-06-05T14:06:15;28.20;29.90
5868;DHT22;2960;49.142;7.768;2023-06-05T14:08:43;28.20;29.90
5868;DHT22;2960;49.142;7.768;2023-06-05T14:11:10;28.20;30.00
5868;DHT22;2960;49.142;7.768;2023-06-05T14:13:38;28.20;30.60
5868;DHT22;2960;49.142;7.768;2023-06-05T14:16:07;28.20;30.00
5868;DHT22;2960;49.142;7.768;2023-06-05T14:18:37;28.20;30.00
5868;DHT22;2960;49.142;7.768;2023-06-05T14:21:04;28.20;30.10
5868;DHT22;2960;49.142;7.768;2023-06-05T14:23:32;28.10;30.20
5868;DHT22;2960;49.142;7.768;2023-06-05T14:26:00;28.10;30.90
5868;DHT22;2960;49.142;7.768;2023-06-05T14:28:27;28.10;30.50
5868;DHT22;2960;49.142;7.768;2023-06-05T14:30:55;28.10;30.60
5868;DHT22;2960;49.142;7.768;2023-06-05T14:33:25;28.00;30.50
5868;DHT22;2960;49.142;7.768;2023-06-05T14:35:53;28.00;30.60
5868;DHT22;2960;49.142;7.768;2023-06-05T14:38:20;28.00;30.70
5868;DHT22;2960;49.142;7.768;2023-06-05T14:40:47;27.90;30.70
5868;DHT22;2960;49.142;7.768;2023-06-05T14:43:16;27.80;30.80
5868;DHT22;2960;49.142;7.768;2023-06-05T14:45:44;27.80;30.90
5868;DHT22;2960;49.142;7.768;2023-06-05T14:48:11;27.80;31.00
5868;DHT22;2960;49.142;7.768;2023-06-05T14:50:40;27.80;31.00
5868;DHT22;2960;49.142;7.768;2023-06-05T14:53:07;27.80;31.00
5868;DHT22;2960;49.142;7.768;2023-06-05T14:55:36;27.80;31.10
5868;DHT22;2960;49.142;7.768;2023-06-05T14:58:04;27.80;31.20
5868;DHT22;2960;49.142;7.768;2023-06-05T15:00:31;27.80;31.30
5868;DHT22;2960;49.142;7.768;2023-06-05T15:02:59;27.80;31.30
5868;DHT22;2960;49.142;7.768;2023-06-05T15:05:26;27.70;31.30
5868;DHT22;2960;49.142;7.768;2023-06-05T15:07:54;27.80;32.00
5868;DHT22;2960;49.142;7.768;2023-06-05T15:10:22;27.80;31.40
5868;DHT22;2960;49.142;7.768;2023-06-05T15:12:50;27.80;31.40
5868;DHT22;2960;49.142;7.768;2023-06-05T15:15:22;27.70;31.20
5868;DHT22;2960;49.142;7.768;2023-06-05T15:17:49;27.70;31.10
5868;DHT22;2960;49.142;7.768;2023-06-05T15:20:18;27.80;31.20
5868;DHT22;2960;49.142;7.768;2023-06-05T15:22:46;27.70;31.20
5868;DHT22;2960;49.142;7.768;2023-06-05T15:25:14;27.70;31.20
5868;DHT22;2960;49.142;7.768;2023-06-05T15:27:41;27.70;31.20
5868;DHT22;2960;49.142;7.768;2023-06-05T15:30:09;27.70;31.30
5868;DHT22;2960;49.142;7.768;2023-06-05T15:32:36;27.70;31.30
5868;DHT22;2960;49.142;7.768;2023-06-05T15:35:04;27.60;31.30
5868;DHT22;2960;49.142;7.768;2023-06-05T15:37:31;27.60;31.30
5868;DHT22;2960;49.142;7.768;2023-06-05T15:39:58;27.60;31.30
5868;DHT22;2960;49.142;7.768;2023-06-05T15:42:34;27.50;31.30
5868;DHT22;2960;49.142;7.768;2023-06-05T15:45:08;27.50;31.40
5868;DHT22;2960;49.142;7.768;2023-06-05T15:47:36;27.40;31.30
5868;DHT22;2960;49.142;7.768;2023-06-05T15:50:05;27.40;31.40
5868;DHT22;2960;49.142;7.768;2023-06-05T15:52:32;27.30;31.30
5868;DHT22;2960;49.142;7.768;2023-06-05T15:55:00;27.30;31.40
5868;DHT22;2960;49.142;7.768;2023-06-05T15:57:29;27.20;31.40
5868;DHT22;2960;49.142;7.768;2023-06-05T15:59:56;27.20;32.10
5868;DHT22;2960;49.142;7.768;2023-06-05T16:02:23;27.20;31.60
5868;DHT22;2960;49.142;7.768;2023-06-05T16:04:51;27.10;31.60
5868;DHT22;2960;49.142;7.768;2023-06-05T16:07:18;27.10;31.60
5868;DHT22;2960;49.142;7.768;2023-06-05T16:09:46;27.00;31.60
5868;DHT22;2960;49.142;7.768;2023-06-05T16:12:13;27.00;31.70
5868;DHT22;2960;49.142;7.768;2023-06-05T16:14:42;26.90;31.70
5868;DHT22;2960;49.142;7.768;2023-06-05T16:17:10;26.90;31.70
5868;DHT22;2960;49.142;7.768;2023-06-05T16:19:37;26.90;31.60